Latest Weather Observations for Moorabbin Airport

IDV60801

Issued at 10:35 am EST Wednesday 30 July 2014 (issued every 30 minutes, with the page automatically refreshed every 10 minutes)

About weather observations | Map of weather stations | Latest weather observations for VIC | Other Formats
Station Details ID: 086077 Name: MOORABBIN AIRPORT Lat: -37.98 Lon: 145.10 Height: 12.1 m
Data from the previous 72 hours. | See also: Recent months at Moorabbin Airport
Date/Time
EST
Temp
°C
App
Temp
°C
Dew
Point
Rel
Hum
%
Delta-T
°C
Wind Press
QNH
hPa
Press
MSL
hPa
Rain
since 9 am
mm
Dir
 
Spd
km/h
Gust
km/h
Spd
kts
Gust
kts
30/10:30am 15.0 9.8 10.2 73 2.5 NNW 28 39 15 21 1012.8 - 0.0
30/10:00am 15.2 11.1 10.0 71 2.7 NNW 22 32 12 17 1012.8 - 0.0
30/09:30am 14.7 9.3 9.5 71 2.7 NNW 28 39 15 21 1012.3 - 0.0
30/09:00am 13.9 9.3 9.7 76 2.2 N 24 41 13 22 1012.2 1012.1 2.8
30/08:30am 13.1 9.4 10.3 83 1.4 N 20 30 11 16 1012.1 - 2.8
30/08:00am 12.1 8.5 10.0 87 1.1 N 19 22 10 12 1012.0 - 2.8
30/07:30am 12.0 8.8 9.9 87 1.1 N 17 20 9 11 1012.0 - 2.8
30/07:00am 10.9 8.0 8.3 84 1.3 N 13 17 7 9 1012.0 - 2.8
30/06:30am 11.9 9.2 9.1 83 1.4 NNW 13 15 7 8 1012.0 - 2.8
30/06:00am 11.3 8.9 10.2 93 0.6 NNW 13 17 7 9 1011.9 1011.8 2.8
30/05:30am 11.3 9.6 10.0 92 0.7 NNW 9 11 5 6 1011.7 - 2.8
30/05:15am 11.7 9.1 10.6 93 0.6 WNW 15 20 8 11 1011.6 - 2.8
30/05:00am 11.8 7.8 10.5 92 0.7 W 22 33 12 18 1011.5 - 2.8
30/04:35am 11.8 6.7 10.5 92 0.7 W 28 46 15 25 1011.6 - 2.4
30/04:30am 11.8 6.2 10.2 90 0.8 W 30 46 16 25 1011.5 - 2.4
30/04:23am 12.3 7.3 9.7 84 1.3 W 26 44 14 24 1011.5 - 2.0
30/04:00am 14.4 10.5 9.6 73 2.5 NW 20 33 11 18 1010.9 - 1.8
30/03:30am 14.5 10.9 9.9 74 2.4 NW 19 24 10 13 1010.8 - 1.8
30/03:00am 14.6 11.0 10.4 76 2.2 NW 20 28 11 15 1010.8 1010.7 1.8
30/02:30am 14.3 11.4 10.9 80 1.8 NNW 17 28 9 15 1010.9 - 1.8
30/02:00am 12.8 10.7 11.2 90 0.8 N 13 20 7 11 1010.9 - 1.8
30/01:30am 13.1 11.5 11.5 90 0.8 WNW 11 20 6 11 1011.0 - 1.8
30/01:10am 12.9 9.7 11.3 90 0.8 WNW 19 28 10 15 1011.1 - 1.8
30/01:00am 13.0 9.2 11.1 88 1.0 NW 22 37 12 20 1010.9 - 1.8
30/12:54am 13.1 8.4 10.5 84 1.4 WNW 26 44 14 24 1011.1 - 1.8
30/12:44am 13.9 10.1 11.1 83 1.5 NW 22 43 12 23 1011.0 - 1.8
30/12:30am 14.0 10.1 10.8 81 1.7 WNW 22 37 12 20 1010.9 - 1.8
30/12:24am 14.4 10.4 10.4 77 2.1 NW 22 33 12 18 1011.1 - 1.2
30/12:00am 15.2 11.7 10.2 72 2.6 NW 19 28 10 15 1010.3 1010.2 0.8
 
Date/Time
EST
Temp
°C
App
Temp
°C
Dew
Point
Rel
Hum
%
Delta-T
°C
Wind Press
QNH
hPa
Press
MSL
hPa
Rain
since 9 am
mm
Dir
 
Spd
km/h
Gust
km/h
Spd
kts
Gust
kts
29/11:30pm 15.0 9.8 10.2 73 2.5 NW 28 46 15 25 1010.2 - 0.8
29/11:11pm 15.9 10.6 10.0 68 3.1 NW 28 48 15 26 1010.0 - 0.8
29/11:00pm 15.3 11.3 10.3 72 2.6 NW 22 33 12 18 1010.0 - 0.8
29/10:30pm 14.7 10.9 11.3 80 1.8 NNW 22 30 12 16 1009.7 - 0.8
29/10:00pm 14.6 10.4 11.0 79 1.9 N 24 35 13 19 1009.5 - 0.4
29/09:30pm 15.7 11.6 10.0 69 3.0 NNW 22 35 12 19 1009.5 - 0.4
29/09:00pm 16.1 11.6 10.0 67 3.2 NNW 24 35 13 19 1009.4 1009.3 0.4
29/08:50pm 16.1 10.8 10.0 67 3.2 NW 28 46 15 25 1009.3 - 0.4
29/08:30pm 15.9 11.4 10.2 69 3.0 NNW 24 35 13 19 1009.1 - 0.4
29/08:00pm 16.0 11.9 10.1 68 3.1 NNW 22 33 12 18 1009.1 - 0.4
29/07:30pm 16.0 11.5 10.1 68 3.1 NNW 24 35 13 19 1009.0 - 0.4
29/07:00pm 15.3 9.7 10.3 72 2.6 N 30 41 16 22 1008.5 - 0.4
29/06:30pm 15.5 9.9 10.3 71 2.7 N 30 44 16 24 1008.1 - 0.4
29/06:00pm 15.2 9.6 10.2 72 2.6 NNW 30 43 16 23 1008.1 1008.0 0.4
29/05:30pm 14.6 10.2 10.4 76 2.2 NNW 24 37 13 20 1007.9 - 0.4
29/05:19pm 14.2 9.2 10.8 80 1.8 NNW 28 35 15 19 1008.0 - 0.4
29/05:00pm 13.8 7.4 10.8 82 1.6 NNW 35 50 19 27 1008.0 - 0.2
29/04:54pm 14.0 7.2 10.6 80 1.8 NNW 37 50 20 27 1007.8 - 0.0
29/04:30pm 15.1 7.6 9.5 69 2.9 N 39 57 21 31 1006.6 - 0.0
29/04:18pm 15.3 8.2 9.4 68 3.0 N 37 57 20 31 1006.4 - 0.0
29/04:00pm 14.6 7.5 9.4 71 2.7 N 37 48 20 26 1006.5 - 0.0
29/03:30pm 14.5 8.1 9.3 71 2.7 N 33 48 18 26 1007.1 - 0.0
29/03:04pm 14.4 8.0 9.2 71 2.7 N 33 52 18 28 1007.5 - 0.0
29/03:00pm 14.5 7.3 9.1 70 2.8 N 37 54 20 29 1007.3 1007.2 0.0
29/02:30pm 14.2 4.8 8.8 70 2.7 N 48 67 26 36 1006.7 - 0.0
29/02:16pm 14.2 5.6 8.8 70 2.7 N 44 63 24 34 1006.8 - 0.0
29/02:00pm 14.2 5.5 8.6 69 2.8 N 44 57 24 31 1007.1 - 0.0
29/01:30pm 14.4 6.7 8.6 68 2.9 N 39 57 21 31 1007.0 - 0.0
29/01:00pm 13.8 5.0 8.0 68 2.9 N 44 63 24 34 1007.2 - 0.0
29/12:39pm 14.0 5.3 7.8 66 3.1 N 43 65 23 35 1007.4 - 0.0
29/12:30pm 14.5 5.9 8.0 65 3.2 N 43 59 23 32 1007.7 - 0.0
29/12:17pm 14.3 6.4 8.0 66 3.1 N 39 57 21 31 1008.0 - 0.0
29/12:00pm 13.8 5.8 7.6 66 3.1 N 39 56 21 30 1008.1 1008.0 0.0
29/11:40am 14.2 6.7 7.9 66 3.1 N 37 56 20 30 1008.6 - 0.0
29/11:30am 13.5 5.5 7.5 67 2.9 N 39 54 21 29 1008.2 - 0.0
29/11:01am 13.3 4.5 7.3 67 2.9 N 43 61 23 33 1008.9 - 0.0
29/11:00am 13.3 4.3 7.3 67 2.9 N 44 61 24 33 1008.8 - 0.0
29/10:50am 13.3 4.5 7.3 67 2.9 N 43 61 23 33 1008.6 - 0.0
29/10:30am 13.7 5.3 7.5 66 3.0 N 41 57 22 31 1008.9 - 0.0
29/10:00am 12.6 4.1 7.1 69 2.7 N 41 54 22 29 1008.6 - 0.0
29/09:30am 13.0 5.4 7.5 69 2.7 N 37 50 20 27 1009.0 - 0.0
29/09:00am 12.3 5.5 7.0 70 2.6 N 32 43 17 23 1009.5 1009.4 0.0
29/08:50am 12.4 5.6 6.9 69 2.6 N 32 50 17 27 1009.3 - 0.0
29/08:30am 11.9 4.5 6.8 71 2.4 N 35 48 19 26 1009.3 - 0.0
29/08:00am 11.9 4.1 6.6 70 2.5 N 37 54 20 29 1009.5 - 0.0
29/07:30am 11.7 4.9 6.8 72 2.3 N 32 43 17 23 1009.7 - 0.0
29/07:00am 11.6 4.6 6.7 72 2.3 N 33 46 18 25 1009.3 - 0.0
29/06:30am 11.7 3.9 6.8 72 2.3 N 37 56 20 30 1009.0 - 0.0
29/06:25am 11.7 3.9 6.8 72 2.3 N 37 56 20 30 1008.7 - 0.0
29/06:00am 11.7 3.2 6.8 72 2.3 N 41 52 22 28 1008.8 1008.7 0.0
29/05:31am 11.8 4.4 6.9 72 2.3 N 35 54 19 29 1008.6 - 0.0
29/05:30am 11.8 4.1 6.9 72 2.3 N 37 54 20 29 1008.5 - 0.0
29/05:04am 11.9 4.1 6.8 71 2.4 N 37 56 20 30 1008.7 - 0.0
29/05:00am 12.0 3.9 6.9 71 2.4 N 39 56 21 30 1008.6 - 0.0
29/04:30am 12.2 4.5 7.1 71 2.5 N 37 52 20 28 1008.8 - 0.0
29/04:00am 12.3 5.4 7.2 71 2.5 N 33 44 18 24 1009.4 - 0.0
29/03:30am 12.5 5.6 7.2 70 2.6 N 33 50 18 27 1009.6 - 0.0
29/03:00am 12.5 5.6 7.4 71 2.5 N 33 44 18 24 1009.5 1009.4 0.0
29/02:30am 12.3 5.6 7.2 71 2.5 N 32 43 17 23 1010.0 - 0.0
29/02:00am 12.2 5.8 7.1 71 2.5 N 30 37 16 20 1010.8 - 0.0
29/01:30am 12.0 5.6 6.9 71 2.4 N 30 41 16 22 1011.1 - 0.0
29/01:00am 12.1 5.3 7.0 71 2.4 N 32 39 17 21 1011.3 - 0.0
29/12:30am 12.3 5.5 7.0 70 2.5 N 32 41 17 22 1011.8 - 0.0
29/12:00am 12.8 6.9 7.3 69 2.7 N 28 39 15 21 1012.3 1012.2 0.0
 
Date/Time
EST
Temp
°C
App
Temp
°C
Dew
Point
Rel
Hum
%
Delta-T
°C
Wind Press
QNH
hPa
Press
MSL
hPa
Rain
since 9 am
mm
Dir
 
Spd
km/h
Gust
km/h
Spd
kts
Gust
kts
28/11:30pm 13.1 6.7 7.1 67 2.9 N 30 39 16 21 1012.5 - 0.0
28/11:00pm 13.3 7.7 7.3 67 2.9 N 26 37 14 20 1012.6 - 0.0
28/10:30pm 13.2 6.4 7.0 66 3.0 N 32 44 17 24 1012.7 - 0.0
28/10:00pm 13.1 6.3 7.1 67 2.9 N 32 43 17 23 1012.6 - 0.0
28/09:30pm 13.2 7.2 7.2 67 2.9 N 28 37 15 20 1012.4 - 0.0
28/09:00pm 13.5 6.8 7.5 67 2.9 N 32 43 17 23 1012.5 1012.4 0.0
28/08:30pm 13.4 7.5 7.4 67 2.9 N 28 44 15 24 1012.7 - 0.0
28/08:00pm 13.7 7.8 7.5 66 3.0 N 28 37 15 20 1012.6 - 0.0
28/07:30pm 13.7 7.8 7.5 66 3.0 N 28 39 15 21 1012.2 - 0.0
28/07:00pm 13.6 7.7 7.6 67 2.9 N 28 39 15 21 1012.1 - 0.0
28/06:30pm 13.4 7.9 7.4 67 2.9 N 26 33 14 18 1012.3 - 0.0
28/06:00pm 13.4 8.2 7.4 67 2.9 N 24 35 13 19 1012.5 1012.4 0.0
28/05:30pm 14.3 9.6 7.6 64 3.3 N 22 30 12 16 1012.2 - 0.0
28/05:00pm 15.2 10.4 7.5 60 3.8 N 22 39 12 21 1012.3 - 0.0
28/04:30pm 15.5 9.6 7.5 59 4.0 N 28 37 15 20 1012.3 - 0.0
28/04:01pm 15.7 9.0 7.5 58 4.1 N 32 50 17 27 1012.2 - 0.0
28/04:00pm 15.6 8.7 7.4 58 4.1 N 33 50 18 27 1012.2 - 0.0
28/03:52pm 15.8 9.4 7.0 56 4.3 N 30 50 16 27 1011.8 - 0.0
28/03:30pm 16.0 8.7 7.2 56 4.4 N 35 52 19 28 1011.2 - 0.0
28/03:27pm 16.0 9.1 7.2 56 4.4 N 33 52 18 28 1011.3 - 0.0
28/03:00pm 16.3 9.3 7.0 54 4.6 N 33 46 18 25 1011.4 1011.3 0.0
28/02:30pm 16.4 9.5 7.1 54 4.6 N 33 44 18 24 1012.1 - 0.0
28/02:00pm 17.0 10.2 7.1 52 4.9 N 32 41 17 22 1012.3 - 0.0
28/01:30pm 17.4 11.1 7.5 52 5.0 N 30 43 16 23 1012.6 - 0.0
28/01:00pm 16.3 9.8 6.4 52 4.8 N 30 43 16 23 1013.2 - 0.0
28/12:30pm 16.4 10.0 6.8 53 4.7 N 30 39 16 21 1013.7 - 0.0
28/12:00pm 15.1 8.5 6.1 55 4.3 N 30 43 16 23 1014.1 1014.0 0.0
28/11:30am 14.6 7.4 5.7 55 4.2 N 33 48 18 26 1014.5 - 0.0
28/11:11am 14.9 7.8 5.4 53 4.5 N 32 50 17 27 1014.7 - 0.0
28/11:00am 14.7 7.5 6.0 56 4.2 N 33 46 18 25 1014.9 - 0.0
28/10:53am 14.5 7.3 5.8 56 4.1 N 33 52 18 28 1015.0 - 0.0
28/10:30am 14.5 7.0 6.1 57 4.0 N 35 50 19 27 1015.2 - 0.0
28/10:00am 13.9 6.7 5.8 58 3.8 N 33 44 18 24 1015.2 - 0.0
28/09:33am 12.8 5.4 5.2 60 3.5 N 33 52 18 28 1015.4 - 0.0
28/09:30am 12.8 5.0 5.0 59 3.6 N 35 52 19 28 1015.4 - 0.0
28/09:00am 12.5 6.1 5.2 61 3.4 N 28 46 15 25 1015.8 1015.7 0.0
28/08:53am 12.6 6.2 5.1 60 3.5 N 28 46 15 25 1015.8 - 0.0
28/08:30am 11.3 6.7 5.4 67 2.7 N 19 24 10 13 1016.0 - 0.0
28/08:00am 11.1 5.5 5.4 68 2.6 N 24 32 13 17 1015.8 - 0.0
28/07:30am 10.9 4.5 5.0 67 2.7 N 28 35 15 19 1015.7 - 0.0
28/07:00am 11.0 5.3 5.1 67 2.7 N 24 35 13 19 1015.9 - 0.0
28/06:30am 10.4 5.1 5.2 70 2.4 N 22 32 12 17 1015.8 - 0.0
28/06:00am 10.8 5.2 5.3 69 2.5 N 24 33 13 18 1015.9 1015.8 0.0
28/05:30am 10.9 5.4 5.7 70 2.4 N 24 30 13 16 1016.2 - 0.0
28/05:00am 11.1 5.2 5.8 70 2.5 N 26 35 14 19 1016.3 - 0.0
28/04:30am 10.5 5.4 6.1 74 2.0 N 22 30 12 16 1016.4 - 0.0
28/04:00am 10.1 5.6 6.3 77 1.8 N 19 26 10 14 1016.5 - 0.0
28/03:30am 9.9 5.2 6.2 78 1.7 N 20 30 11 16 1016.7 - 0.0
28/03:00am 10.4 5.4 6.4 76 1.9 N 22 28 12 15 1017.0 1016.9 0.0
28/02:30am 10.9 5.5 6.3 73 2.2 N 24 35 13 19 1017.3 - 0.0
28/02:00am 11.2 5.5 6.7 74 2.1 N 26 39 14 21 1017.3 - 0.0
28/01:30am 10.9 4.5 6.8 76 1.9 N 30 37 16 20 1017.5 - 0.0
28/01:00am 11.0 5.0 6.9 76 1.9 N 28 41 15 22 1017.7 - 0.0
28/12:30am 11.8 5.8 7.1 73 2.3 N 28 37 15 20 1018.0 - 0.0
28/12:00am 11.9 6.3 7.0 72 2.3 N 26 37 14 20 1018.4 1018.3 0.0
 
Date/Time
EST
Temp
°C
App
Temp
°C
Dew
Point
Rel
Hum
%
Delta-T
°C
Wind Press
QNH
hPa
Press
MSL
hPa
Rain
since 9 am
mm
Dir
 
Spd
km/h
Gust
km/h
Spd
kts
Gust
kts
27/11:30pm 12.4 6.1 7.5 72 2.4 N 30 41 16 22 1018.5 - 0.0
27/11:00pm 12.4 6.5 7.7 73 2.3 N 28 41 15 22 1019.0 - 0.0
27/10:30pm 12.4 6.2 7.9 74 2.2 N 30 41 16 22 1019.4 - 0.0
27/10:00pm 12.2 6.0 7.9 75 2.1 N 30 39 16 21 1019.8 - 0.0
27/09:30pm 12.6 6.1 8.3 75 2.1 N 32 41 17 22 1019.8 - 0.0
27/09:00pm 12.6 6.5 8.1 74 2.2 N 30 43 16 23 1019.9 1019.8 0.0
27/08:30pm 12.4 5.8 7.9 74 2.2 N 32 39 17 21 1020.1 - 0.0
27/08:00pm 12.2 7.9 7.7 74 2.2 N 20 30 11 16 1020.4 - 0.0
27/07:30pm 12.7 8.3 7.6 71 2.5 NNW 20 28 11 15 1020.7 - 0.0
27/07:00pm 12.8 8.9 7.3 69 2.7 NNW 17 22 9 12 1020.5 - 0.0
27/06:30pm 13.0 8.2 7.2 68 2.8 N 22 32 12 17 1020.0 - 0.0
27/06:00pm 13.1 8.7 7.5 69 2.7 N 20 30 11 16 1019.8 1019.7 0.0
27/05:30pm 13.6 8.9 7.6 67 2.9 N 22 26 12 14 1020.0 - 0.0
27/05:00pm 14.3 10.5 7.4 63 3.4 N 17 24 9 13 1020.5 - 0.0
27/04:30pm 14.9 11.7 6.7 58 4.0 NNW 13 19 7 10 1020.3 - 0.0
27/04:00pm 14.9 10.6 7.2 60 3.8 NW 19 26 10 14 1020.8 - 0.0
27/03:30pm 14.8 9.6 7.4 61 3.7 N 24 32 13 17 1020.6 - 0.0
27/03:00pm 15.1 10.3 7.2 59 3.9 NNW 22 33 12 18 1020.4 1020.3 0.0
27/02:30pm 15.3 10.2 7.6 60 3.8 N 24 39 13 21 1020.1 - 0.0
27/02:00pm 15.5 10.9 8.0 61 3.8 NNW 22 32 12 17 1020.3 - 0.0
27/01:30pm 15.3 10.9 8.8 65 3.3 N 22 32 12 17 1020.7 - 0.0
27/01:00pm 14.9 9.2 8.4 65 3.3 N 28 39 15 21 1021.3 - 0.0
27/12:30pm 14.9 8.8 8.4 65 3.3 N 30 44 16 24 1021.8 - 0.0
27/12:00pm 14.6 9.5 7.6 63 3.4 N 24 37 13 20 1022.6 1022.5 0.0
27/11:30am 14.4 9.4 8.1 66 3.1 N 24 32 13 17 1023.0 - 0.0
27/11:00am 14.0 9.1 8.4 69 2.8 N 24 33 13 18 1023.7 - 0.0

Other Formats:

Comma delimited format used in spreadsheet applications
http://www.bom.gov.au/fwo/IDV60801/IDV60801.94870.axf

JavaScript Object Notation format (JSON) in row-major order
http://www.bom.gov.au/fwo/IDV60801/IDV60801.94870.json